Time;durP1;ratioP1;P1;durP2;ratioP2;P2;SDS_P1;SDS_P2;PMS_P1;PMS_P2;Temp;Humidity;BMP_temperature;BMP_pressure;BME280_temperature;BME280_humidity;BME280_pressure;Samples;Min_cycle;Max_cycle;Signal;HPM_P1;HPM_P2
2024/01/07 00:02:07;;;;;;;13.63;8.83;;;4.40;99.90;;;;;;5031778;28;20216;-70
2024/01/07 00:04:34;;;;;;;11.60;7.73;;;4.50;99.90;;;;;;5025596;28;20199;-70
2024/01/07 00:07:04;;;;;;;11.83;8.13;;;4.50;99.90;;;;;;5028007;28;20173;-69
2024/01/07 00:09:32;;;;;;;13.70;9.03;;;4.50;99.90;;;;;;5021563;28;20189;-71
2024/01/07 00:11:58;;;;;;;12.00;8.33;;;4.60;99.90;;;;;;5026065;28;20221;-65
2024/01/07 00:14:23;;;;;;;13.80;8.93;;;4.50;99.90;;;;;;5030638;28;20182;-70
2024/01/07 00:16:49;;;;;;;13.63;8.87;;;4.50;99.90;;;;;;5020602;28;20266;-69
2024/01/07 00:19:15;;;;;;;11.43;8.13;;;4.60;99.90;;;;;;5046901;28;20432;-71
2024/01/07 00:21:40;;;;;;;13.67;8.70;;;4.60;99.90;;;;;;5025155;28;20208;-70
2024/01/07 00:24:08;;;;;;;14.03;8.67;;;4.60;99.90;;;;;;5029183;28;20174;-70
2024/01/07 00:26:34;;;;;;;14.13;8.70;;;4.60;99.90;;;;;;5033289;28;20166;-70
2024/01/07 00:29:02;;;;;;;14.67;9.00;;;4.60;99.90;;;;;;5032712;28;20174;-70
2024/01/07 00:31:27;;;;;;;15.40;9.20;;;4.60;99.90;;;;;;5033547;28;20236;-69
2024/01/07 00:33:53;;;;;;;14.50;9.83;;;4.70;99.90;;;;;;5030643;28;20181;-70
2024/01/07 00:36:18;;;;;;;16.60;10.50;;;4.70;99.90;;;;;;5031107;28;20197;-70
2024/01/07 00:38:44;;;;;;;16.07;10.30;;;4.70;99.90;;;;;;5027769;28;20258;-70
2024/01/07 00:41:12;;;;;;;16.57;10.37;;;4.60;99.90;;;;;;5030314;28;20189;-69
2024/01/07 00:43:38;;;;;;;15.63;10.33;;;4.70;99.90;;;;;;5023714;28;20174;-69
2024/01/07 00:46:04;;;;;;;16.17;10.13;;;4.70;99.90;;;;;;5033086;28;20169;-70
2024/01/07 00:48:34;;;;;;;15.63;9.80;;;4.60;99.90;;;;;;5029129;28;20212;-70
2024/01/07 00:51:00;;;;;;;14.90;9.40;;;4.70;99.90;;;;;;5040913;28;20763;-70
2024/01/07 00:53:28;;;;;;;13.77;8.97;;;4.60;99.90;;;;;;5039002;28;20192;-69
2024/01/07 00:55:57;;;;;;;13.33;8.70;;;4.60;99.90;;;;;;5037228;28;20197;-70
2024/01/07 00:58:25;;;;;;;12.83;8.53;;;4.70;99.90;;;;;;5029987;28;20255;-69
2024/01/07 01:00:53;;;;;;;11.77;8.23;;;4.60;99.90;;;;;;5033418;28;20205;-71
2024/01/07 01:03:22;;;;;;;12.00;7.97;;;4.60;99.90;;;;;;5036145;28;20268;-70
2024/01/07 01:05:50;;;;;;;12.53;8.10;;;4.80;99.90;;;;;;5032502;28;20194;-71
2024/01/07 01:08:16;;;;;;;13.83;8.70;;;4.70;99.90;;;;;;5029670;28;20217;-70
2024/01/07 01:10:43;;;;;;;12.57;8.50;;;4.70;99.90;;;;;;5035298;28;20233;-71
2024/01/07 01:13:10;;;;;;;12.87;8.33;;;4.70;99.90;;;;;;5031324;28;20274;-69
2024/01/07 01:15:37;;;;;;;10.67;7.47;;;4.70;99.90;;;;;;5029994;28;20197;-71
2024/01/07 01:18:03;;;;;;;12.33;8.20;;;4.70;99.90;;;;;;5038625;28;20190;-70
2024/01/07 01:20:29;;;;;;;11.13;7.60;;;4.70;99.90;;;;;;5034173;28;20220;-70
2024/01/07 01:22:57;;;;;;;13.50;8.23;;;4.70;99.90;;;;;;5039657;28;20183;-67
2024/01/07 01:25:22;;;;;;;12.43;7.93;;;4.70;99.90;;;;;;5032530;28;20186;-70
2024/01/07 01:27:50;;;;;;;12.70;7.97;;;4.70;99.90;;;;;;5029832;28;20174;-71
2024/01/07 01:30:18;;;;;;;10.93;7.60;;;4.70;99.90;;;;;;5027289;28;20175;-70
2024/01/07 01:32:44;;;;;;;11.33;8.27;;;4.70;99.90;;;;;;5029349;28;20191;-71
2024/01/07 01:35:12;;;;;;;11.30;7.50;;;4.70;99.90;;;;;;5022907;28;20193;-71
2024/01/07 01:37:37;;;;;;;9.50;6.30;;;4.70;99.90;;;;;;5040054;28;20425;-70
2024/01/07 01:40:04;;;;;;;10.87;7.33;;;4.70;99.90;;;;;;5035314;28;20280;-71
2024/01/07 01:42:32;;;;;;;11.67;7.50;;;4.70;99.90;;;;;;5024554;28;20198;-69
2024/01/07 01:45:01;;;;;;;9.40;6.67;;;4.80;99.90;;;;;;5043526;28;20213;-72
2024/01/07 01:47:29;;;;;;;10.27;6.90;;;4.80;99.90;;;;;;5031747;28;20190;-72
2024/01/07 01:49:55;;;;;;;11.43;7.30;;;4.80;99.90;;;;;;5026371;28;20193;-69
2024/01/07 01:52:21;;;;;;;12.60;8.07;;;4.80;99.90;;;;;;5035110;28;20201;-71
2024/01/07 01:54:49;;;;;;;11.60;7.30;;;4.80;99.90;;;;;;5031798;28;20187;-72
2024/01/07 01:57:20;;;;;;;9.90;6.77;;;4.80;99.90;;;;;;5033542;28;20186;-72
2024/01/07 01:59:47;;;;;;;12.10;7.87;;;4.80;99.90;;;;;;5031487;28;20198;-72
2024/01/07 02:02:17;;;;;;;12.80;8.40;;;4.90;99.90;;;;;;5034972;28;20198;-72
2024/01/07 02:04:45;;;;;;;13.60;8.90;;;4.80;99.90;;;;;;5032771;28;20194;-69
2024/01/07 02:07:11;;;;;;;13.00;8.67;;;5.00;99.90;;;;;;5032895;28;20206;-72
2024/01/07 02:09:36;;;;;;;14.47;9.17;;;4.90;99.90;;;;;;5034376;28;20213;-70
2024/01/07 02:12:11;;;;;;;12.20;8.57;;;4.90;99.90;;;;;;5033963;28;20178;-72
2024/01/07 02:14:37;;;;;;;12.37;8.07;;;4.90;99.90;;;;;;5031274;28;20198;-71
2024/01/07 02:17:03;;;;;;;12.80;8.50;;;4.90;99.90;;;;;;5031721;28;20281;-72
2024/01/07 02:19:30;;;;;;;12.27;7.83;;;4.90;99.90;;;;;;5031800;28;20182;-72
2024/01/07 02:21:56;;;;;;;10.20;7.03;;;4.80;99.90;;;;;;5031448;28;20210;-69
2024/01/07 02:24:22;;;;;;;10.90;7.37;;;4.80;99.90;;;;;;5026576;28;20197;-70
2024/01/07 02:26:50;;;;;;;10.30;6.93;;;4.80;99.90;;;;;;5034139;28;20205;-70
2024/01/07 02:29:18;;;;;;;11.30;7.40;;;4.80;99.90;;;;;;5035683;28;20193;-71
2024/01/07 02:31:43;;;;;;;12.23;8.20;;;4.80;99.90;;;;;;5033680;28;20185;-72
2024/01/07 02:34:12;;;;;;;9.97;7.37;;;4.90;99.90;;;;;;5030510;28;20183;-72
2024/01/07 02:36:38;;;;;;;10.13;7.57;;;4.80;99.90;;;;;;5021365;28;20248;-72
2024/01/07 02:39:03;;;;;;;10.63;7.30;;;4.80;99.90;;;;;;5034791;28;20186;-72
2024/01/07 02:41:29;;;;;;;10.60;6.57;;;4.80;99.90;;;;;;5035439;28;20210;-72
2024/01/07 02:43:55;;;;;;;9.53;6.83;;;4.80;99.90;;;;;;5035642;28;20182;-71
2024/01/07 02:46:23;;;;;;;9.33;6.20;;;4.70;99.90;;;;;;5034893;28;20245;-73
2024/01/07 02:48:49;;;;;;;9.87;6.83;;;4.80;99.90;;;;;;5033538;28;20189;-71
2024/01/07 02:51:15;;;;;;;9.00;6.03;;;4.80;99.90;;;;;;5031820;28;20174;-73
2024/01/07 02:53:40;;;;;;;10.30;6.93;;;4.70;99.90;;;;;;5022638;28;20191;-72
2024/01/07 02:56:08;;;;;;;9.23;6.50;;;4.70;99.90;;;;;;5035067;28;20178;-70
2024/01/07 02:58:36;;;;;;;8.87;6.20;;;4.70;99.90;;;;;;5019149;28;20178;-72
2024/01/07 03:01:02;;;;;;;7.03;5.50;;;4.70;99.90;;;;;;5021344;28;20206;-70
2024/01/07 03:03:31;;;;;;;8.60;5.53;;;4.70;99.90;;;;;;5035445;28;20193;-72
2024/01/07 03:05:56;;;;;;;6.77;5.10;;;4.70;99.90;;;;;;5033721;28;20259;-73
2024/01/07 03:08:22;;;;;;;6.53;5.00;;;4.70;99.90;;;;;;5035480;28;20234;-72
2024/01/07 03:10:47;;;;;;;7.43;5.30;;;4.80;99.90;;;;;;5026156;28;20178;-72
2024/01/07 03:13:13;;;;;;;7.03;5.10;;;4.80;99.90;;;;;;5030520;28;20193;-73
2024/01/07 03:15:41;;;;;;;7.57;5.10;;;4.80;99.90;;;;;;5037144;28;20198;-73
2024/01/07 03:18:06;;;;;;;8.50;5.60;;;4.80;99.90;;;;;;5032492;28;20194;-73
2024/01/07 03:20:32;;;;;;;7.87;5.00;;;4.80;99.90;;;;;;5024902;28;20178;-73
2024/01/07 03:23:02;;;;;;;7.20;5.63;;;4.80;99.90;;;;;;5023337;28;20206;-72
2024/01/07 03:25:30;;;;;;;8.30;5.50;;;4.80;99.90;;;;;;5029006;28;20202;-73
2024/01/07 03:27:56;;;;;;;9.60;6.57;;;4.80;99.90;;;;;;5024112;28;20263;-72
2024/01/07 03:30:26;;;;;;;8.17;6.03;;;4.80;99.90;;;;;;5027125;28;20339;-71
2024/01/07 03:32:56;;;;;;;9.33;6.40;;;4.80;99.90;;;;;;5029050;28;20209;-72
2024/01/07 03:35:24;;;;;;;8.73;6.10;;;4.80;99.90;;;;;;5033484;28;20185;-72
2024/01/07 03:37:51;;;;;;;8.50;6.00;;;4.80;99.90;;;;;;5028740;28;20205;-72
2024/01/07 03:40:17;;;;;;;11.27;6.73;;;4.80;99.90;;;;;;5026138;28;20246;-72
2024/01/07 03:42:43;;;;;;;9.43;6.70;;;4.80;99.90;;;;;;5029617;28;20301;-73
2024/01/07 03:45:08;;;;;;;8.80;6.33;;;4.80;99.90;;;;;;5030548;28;20224;-72
2024/01/07 03:47:34;;;;;;;10.37;6.90;;;4.80;99.90;;;;;;5030018;28;20236;-74
2024/01/07 03:50:00;;;;;;;10.93;7.70;;;4.80;99.90;;;;;;5023669;28;20213;-74
2024/01/07 03:52:25;;;;;;;13.23;8.37;;;4.80;99.90;;;;;;5029482;28;20271;-71
2024/01/07 03:54:53;;;;;;;11.23;7.57;;;4.70;99.90;;;;;;5026805;28;20316;-73
2024/01/07 03:57:19;;;;;;;10.63;7.47;;;4.80;99.90;;;;;;5023867;28;20203;-71
2024/01/07 03:59:49;;;;;;;11.33;7.93;;;4.70;99.90;;;;;;5023480;28;20174;-72
2024/01/07 04:02:16;;;;;;;12.80;9.03;;;4.70;99.90;;;;;;5029364;28;21770;-74
2024/01/07 04:04:42;;;;;;;13.60;8.90;;;4.70;99.90;;;;;;5030932;28;21102;-70
2024/01/07 04:07:10;;;;;;;13.67;8.77;;;4.70;99.90;;;;;;5022980;28;20185;-71
2024/01/07 04:09:37;;;;;;;12.57;8.40;;;4.70;99.90;;;;;;5031208;28;20198;-75
2024/01/07 04:12:03;;;;;;;13.00;8.53;;;4.70;99.90;;;;;;5029069;28;20178;-74
2024/01/07 04:14:29;;;;;;;14.17;9.37;;;4.70;99.90;;;;;;5031201;28;20178;-71
2024/01/07 04:16:55;;;;;;;11.33;8.23;;;4.70;99.90;;;;;;5030741;28;20270;-74
2024/01/07 04:19:20;;;;;;;11.93;8.73;;;4.70;99.90;;;;;;5032037;28;20177;-72
2024/01/07 04:21:46;;;;;;;12.47;7.80;;;4.70;99.90;;;;;;5022502;28;20215;-72
2024/01/07 04:24:12;;;;;;;13.10;8.80;;;4.70;99.90;;;;;;5030197;28;20205;-72
2024/01/07 04:26:39;;;;;;;12.97;8.90;;;4.70;99.90;;;;;;5026963;28;20190;-73
2024/01/07 04:29:06;;;;;;;11.03;7.90;;;4.70;99.90;;;;;;5028720;28;20209;-71
2024/01/07 04:31:34;;;;;;;12.47;8.77;;;4.70;99.90;;;;;;5024414;28;20212;-72
2024/01/07 04:34:00;;;;;;;12.43;8.90;;;4.70;99.90;;;;;;5030414;28;20193;-73
2024/01/07 04:36:25;;;;;;;13.17;8.93;;;4.70;99.90;;;;;;5028518;28;20186;-73
2024/01/07 04:38:51;;;;;;;11.63;8.27;;;4.70;99.90;;;;;;5026181;28;20272;-73
2024/01/07 04:41:19;;;;;;;11.27;8.27;;;4.70;99.90;;;;;;5032007;28;20267;-73
2024/01/07 04:43:44;;;;;;;12.87;9.10;;;4.70;99.90;;;;;;5026821;28;20257;-71
2024/01/07 04:46:11;;;;;;;12.03;8.60;;;4.70;99.90;;;;;;5021037;28;20261;-73
2024/01/07 04:48:37;;;;;;;11.57;7.93;;;4.70;99.90;;;;;;5031862;28;20174;-72
2024/01/07 04:51:02;;;;;;;12.10;8.50;;;4.60;99.90;;;;;;5026675;28;20248;-70
2024/01/07 04:53:30;;;;;;;11.17;8.30;;;4.60;99.90;;;;;;5031231;28;20269;-72
2024/01/07 04:55:56;;;;;;;11.97;8.17;;;4.60;99.90;;;;;;5030072;28;20257;-71
2024/01/07 04:58:21;;;;;;;11.23;8.13;;;4.60;99.90;;;;;;5027048;28;20189;-72
2024/01/07 05:00:52;;;;;;;9.60;6.90;;;4.60;99.90;;;;;;5028399;28;20175;-73
2024/01/07 05:03:18;;;;;;;10.63;7.53;;;4.60;99.90;;;;;;5027216;28;20198;-70
2024/01/07 05:05:46;;;;;;;9.70;6.90;;;4.60;99.90;;;;;;5028470;28;20179;-73
2024/01/07 05:08:14;;;;;;;9.57;6.83;;;4.60;99.90;;;;;;5030448;28;20197;-73
2024/01/07 05:10:39;;;;;;;10.40;7.03;;;4.60;99.90;;;;;;5022388;28;20209;-73
2024/01/07 05:13:06;;;;;;;8.70;6.40;;;4.60;99.90;;;;;;5030332;28;20174;-73
2024/01/07 05:15:32;;;;;;;8.37;6.30;;;4.60;99.90;;;;;;5029291;28;20177;-73
2024/01/07 05:18:00;;;;;;;9.77;7.40;;;4.60;99.90;;;;;;5029335;28;20197;-72
2024/01/07 05:20:26;;;;;;;10.77;7.67;;;4.60;99.90;;;;;;5028199;28;20221;-73
2024/01/07 05:22:51;;;;;;;11.57;8.03;;;4.60;99.90;;;;;;5029081;28;20241;-72
2024/01/07 05:25:17;;;;;;;11.77;7.87;;;4.50;99.90;;;;;;5029339;28;20212;-73
2024/01/07 05:27:45;;;;;;;10.03;7.23;;;4.50;99.90;;;;;;5032195;28;20235;-72
2024/01/07 05:30:11;;;;;;;10.10;6.57;;;4.40;99.90;;;;;;5036880;28;20182;-73
2024/01/07 05:32:39;;;;;;;10.73;7.87;;;4.40;99.90;;;;;;5033754;28;20216;-72
2024/01/07 05:35:06;;;;;;;9.33;6.20;;;4.30;99.90;;;;;;5034939;28;20244;-73
2024/01/07 05:37:32;;;;;;;9.77;6.80;;;4.30;99.90;;;;;;5031086;28;20189;-73
2024/01/07 05:39:58;;;;;;;9.50;6.97;;;4.20;99.90;;;;;;5035775;28;20190;-72
2024/01/07 05:42:26;;;;;;;10.63;7.40;;;4.20;99.90;;;;;;5035594;28;20194;-73
2024/01/07 05:44:51;;;;;;;10.43;7.23;;;4.20;99.90;;;;;;5033124;28;20173;-74
2024/01/07 05:47:18;;;;;;;11.80;7.40;;;4.20;99.90;;;;;;5032877;28;20170;-71
2024/01/07 05:49:43;;;;;;;9.43;6.83;;;4.10;99.90;;;;;;5021054;28;20183;-71
2024/01/07 05:52:09;;;;;;;9.53;7.10;;;4.10;99.90;;;;;;5032546;28;20270;-73
2024/01/07 05:54:34;;;;;;;9.30;7.17;;;4.10;99.90;;;;;;5033218;28;20181;-73
2024/01/07 05:57:02;;;;;;;9.93;7.40;;;4.10;99.90;;;;;;5032076;28;20288;-73
2024/01/07 05:59:28;;;;;;;12.40;7.37;;;4.10;99.90;;;;;;5034584;28;20333;-73
2024/01/07 06:01:58;;;;;;;10.53;7.43;;;4.10;99.90;;;;;;5033373;28;20292;-73
2024/01/07 06:04:24;;;;;;;10.47;6.83;;;4.10;99.90;;;;;;5035258;28;20198;-73
2024/01/07 06:06:49;;;;;;;10.43;7.37;;;4.10;99.90;;;;;;5036982;28;20174;-73
2024/01/07 06:09:15;;;;;;;10.40;7.33;;;4.10;99.90;;;;;;5031698;28;20321;-74
2024/01/07 06:11:41;;;;;;;11.33;7.47;;;4.10;99.90;;;;;;5031006;28;20202;-73
2024/01/07 06:14:08;;;;;;;11.40;7.43;;;4.10;99.90;;;;;;5028409;28;20178;-71
2024/01/07 06:16:34;;;;;;;13.00;8.23;;;4.10;99.90;;;;;;5033074;28;20178;-72
2024/01/07 06:19:02;;;;;;;11.57;7.43;;;4.10;99.90;;;;;;5030754;28;20193;-73
2024/01/07 06:21:28;;;;;;;13.27;8.27;;;4.10;99.90;;;;;;5034813;28;20201;-73
2024/01/07 06:23:53;;;;;;;12.67;8.10;;;4.10;99.90;;;;;;5036567;28;20200;-72
2024/01/07 06:26:21;;;;;;;11.90;8.40;;;4.00;99.90;;;;;;5027954;28;20289;-72
2024/01/07 06:28:47;;;;;;;11.23;7.57;;;4.10;99.90;;;;;;5041262;28;20219;-73
2024/01/07 06:31:12;;;;;;;11.30;7.97;;;4.10;99.90;;;;;;5030627;28;20179;-72
2024/01/07 06:33:38;;;;;;;13.13;8.93;;;4.10;99.90;;;;;;5029615;28;20206;-72
2024/01/07 06:36:04;;;;;;;10.70;8.17;;;4.10;99.90;;;;;;5034363;28;20185;-72
2024/01/07 06:38:31;;;;;;;12.93;8.40;;;4.10;99.90;;;;;;5030239;28;20191;-73
2024/01/07 06:41:00;;;;;;;10.87;8.07;;;4.10;99.90;;;;;;5023263;28;20202;-73
2024/01/07 06:43:27;;;;;;;12.23;8.37;;;4.00;99.90;;;;;;5020688;28;20181;-73
2024/01/07 06:45:53;;;;;;;14.17;8.83;;;4.00;99.90;;;;;;5015913;28;20179;-70
2024/01/07 06:48:19;;;;;;;13.37;9.40;;;4.00;99.90;;;;;;5035592;28;20182;-72
2024/01/07 06:50:45;;;;;;;12.17;8.23;;;4.00;99.90;;;;;;5030982;28;20224;-73
2024/01/07 06:53:10;;;;;;;11.73;8.17;;;4.00;99.90;;;;;;5032180;28;20185;-74
2024/01/07 06:55:36;;;;;;;14.27;9.50;;;4.00;99.90;;;;;;5030713;28;20174;-74
2024/01/07 06:58:04;;;;;;;14.43;10.00;;;4.00;99.90;;;;;;5034844;28;20174;-74
2024/01/07 07:00:32;;;;;;;12.17;9.20;;;4.00;99.90;;;;;;5035540;28;20208;-73
2024/01/07 07:02:58;;;;;;;13.87;8.87;;;4.00;99.90;;;;;;5030024;28;20202;-71
2024/01/07 07:05:23;;;;;;;10.50;7.57;;;4.00;99.90;;;;;;5036893;28;20267;-73
2024/01/07 07:07:49;;;;;;;14.00;9.33;;;3.90;99.90;;;;;;5029875;28;20178;-73
2024/01/07 07:10:17;;;;;;;12.83;8.87;;;3.90;99.90;;;;;;5031023;28;20200;-74
2024/01/07 07:12:42;;;;;;;12.37;9.00;;;3.90;99.90;;;;;;5031166;28;20205;-72
2024/01/07 07:15:10;;;;;;;12.77;9.07;;;3.90;99.90;;;;;;5028760;28;20181;-72
2024/01/07 07:17:39;;;;;;;13.57;9.07;;;3.90;99.90;;;;;;5028143;28;20202;-73
2024/01/07 07:20:09;;;;;;;13.30;9.27;;;3.90;99.90;;;;;;5025713;28;20469;-71
2024/01/07 07:22:35;;;;;;;14.40;10.10;;;3.90;99.90;;;;;;5025699;28;20211;-73
2024/01/07 07:25:00;;;;;;;13.47;9.13;;;3.90;99.90;;;;;;5034998;28;20177;-71
2024/01/07 07:27:28;;;;;;;13.93;9.47;;;3.90;99.90;;;;;;5033729;28;20221;-74
2024/01/07 07:29:56;;;;;;;11.43;8.87;;;3.90;99.90;;;;;;5032917;28;20194;-74
2024/01/07 07:32:24;;;;;;;12.23;8.73;;;3.90;99.90;;;;;;5021646;28;20193;-73
2024/01/07 07:34:52;;;;;;;10.97;7.50;;;3.90;99.90;;;;;;5031244;28;20824;-74
2024/01/07 07:37:20;;;;;;;11.90;8.67;;;4.00;99.90;;;;;;5027946;28;20198;-71
2024/01/07 07:39:46;;;;;;;12.17;8.47;;;4.00;99.90;;;;;;5021556;28;20194;-71
2024/01/07 07:42:14;;;;;;;10.50;8.00;;;4.10;99.90;;;;;;5037704;28;20194;-74
2024/01/07 07:44:42;;;;;;;13.40;8.57;;;4.10;99.90;;;;;;5025150;28;20198;-73
2024/01/07 07:47:12;;;;;;;13.00;8.87;;;4.10;99.90;;;;;;5023148;28;20167;-74
2024/01/07 07:49:40;;;;;;;10.53;8.00;;;4.10;99.90;;;;;;5022459;28;20210;-73
2024/01/07 07:52:10;;;;;;;13.20;8.60;;;4.20;99.90;;;;;;5030933;28;20190;-72
2024/01/07 07:54:44;;;;;;;11.57;7.70;;;4.20;99.90;;;;;;5028939;28;20183;-74
2024/01/07 07:57:12;;;;;;;11.90;8.93;;;4.20;99.90;;;;;;5039960;28;20171;-74
2024/01/07 07:59:40;;;;;;;11.43;7.93;;;4.20;99.90;;;;;;5027922;28;20186;-69
2024/01/07 08:02:08;;;;;;;11.10;7.80;;;4.20;99.90;;;;;;5027420;28;20202;-73
2024/01/07 08:04:36;;;;;;;11.13;8.20;;;4.20;99.90;;;;;;5024367;28;20506;-74
2024/01/07 08:07:02;;;;;;;11.33;8.33;;;4.20;99.90;;;;;;5033341;28;20177;-74
2024/01/07 08:09:28;;;;;;;12.47;8.70;;;4.20;99.90;;;;;;5033400;28;20292;-73
2024/01/07 08:11:58;;;;;;;10.33;7.80;;;4.20;99.90;;;;;;5026999;28;20269;-72
2024/01/07 08:14:24;;;;;;;10.37;7.30;;;4.20;99.90;;;;;;5014677;28;20186;-74
2024/01/07 08:16:49;;;;;;;12.27;8.57;;;4.20;99.90;;;;;;5045870;28;20178;-74
2024/01/07 08:19:15;;;;;;;12.20;8.47;;;4.20;99.90;;;;;;5034287;28;20201;-74
2024/01/07 08:21:41;;;;;;;10.67;7.60;;;4.20;99.90;;;;;;5033672;28;20205;-74
2024/01/07 08:24:10;;;;;;;10.40;7.43;;;4.20;99.90;;;;;;5033506;28;20205;-72
2024/01/07 08:26:38;;;;;;;9.53;7.37;;;4.20;99.90;;;;;;5034288;28;20166;-73
2024/01/07 08:29:06;;;;;;;11.23;8.20;;;4.20;99.90;;;;;;5034632;28;20173;-73
2024/01/07 08:31:32;;;;;;;11.07;8.17;;;4.20;99.90;;;;;;5031859;28;20202;-75
2024/01/07 08:33:57;;;;;;;10.07;7.73;;;4.20;99.90;;;;;;5033736;28;20180;-72
2024/01/07 08:36:23;;;;;;;11.20;7.93;;;4.20;99.90;;;;;;5031135;28;20185;-75
2024/01/07 08:38:49;;;;;;;11.77;7.63;;;4.10;99.90;;;;;;5032111;28;20180;-73
2024/01/07 08:41:18;;;;;;;9.87;7.37;;;4.10;99.90;;;;;;5032081;28;20236;-74
2024/01/07 08:43:44;;;;;;;12.83;8.70;;;4.10;99.90;;;;;;5033376;28;20204;-71
2024/01/07 08:46:10;;;;;;;10.47;8.37;;;4.10;99.90;;;;;;5034048;28;20209;-74
2024/01/07 08:48:38;;;;;;;12.33;9.20;;;4.10;99.90;;;;;;5032501;28;20446;-74
2024/01/07 08:51:09;;;;;;;11.33;8.13;;;4.10;99.90;;;;;;5033465;28;20228;-72
2024/01/07 08:53:36;;;;;;;9.00;6.97;;;4.10;99.90;;;;;;5033891;28;20188;-73
2024/01/07 08:56:04;;;;;;;12.07;8.20;;;4.10;99.90;;;;;;5030476;28;20183;-71
2024/01/07 08:58:30;;;;;;;11.73;8.47;;;4.00;99.90;;;;;;5031977;28;20178;-73
2024/01/07 09:00:57;;;;;;;11.00;8.23;;;4.10;99.90;;;;;;5035136;28;20189;-74
2024/01/07 09:03:25;;;;;;;10.13;7.43;;;4.00;99.90;;;;;;5026387;28;20214;-73
2024/01/07 09:05:53;;;;;;;11.13;7.30;;;4.00;99.90;;;;;;5034020;28;20185;-73
2024/01/07 09:08:19;;;;;;;9.67;7.50;;;4.00;99.90;;;;;;5036758;28;20178;-74
2024/01/07 09:10:46;;;;;;;10.07;7.47;;;4.00;99.90;;;;;;5037643;28;20197;-73
2024/01/07 09:13:12;;;;;;;12.00;8.53;;;4.00;99.90;;;;;;5025105;28;20196;-73
2024/01/07 09:15:38;;;;;;;11.77;8.43;;;4.00;99.90;;;;;;5017906;28;20210;-70
2024/01/07 09:18:07;;;;;;;10.40;7.33;;;4.00;99.90;;;;;;5036613;28;20190;-73
2024/01/07 09:20:33;;;;;;;11.23;7.97;;;4.00;99.90;;;;;;5026582;28;20188;-72
2024/01/07 09:23:01;;;;;;;11.20;7.50;;;4.00;99.90;;;;;;5017688;28;20210;-72
2024/01/07 09:25:27;;;;;;;10.73;8.10;;;4.00;99.90;;;;;;5033651;28;20186;-72
2024/01/07 09:27:52;;;;;;;10.17;7.37;;;4.00;99.90;;;;;;5035866;28;20301;-73
2024/01/07 09:30:18;;;;;;;9.00;6.70;;;4.10;99.90;;;;;;5037533;28;20204;-74
2024/01/07 09:32:44;;;;;;;10.47;7.07;;;4.10;99.90;;;;;;5035626;28;20184;-73
2024/01/07 09:35:12;;;;;;;9.83;6.63;;;4.10;99.90;;;;;;5036705;28;20276;-74
2024/01/07 09:37:40;;;;;;;11.30;7.70;;;4.10;99.90;;;;;;5036795;28;20186;-74
2024/01/07 09:40:06;;;;;;;12.40;8.87;;;4.20;99.90;;;;;;5034607;28;20288;-73
2024/01/07 09:42:35;;;;;;;11.70;8.27;;;4.20;99.90;;;;;;5024177;28;20224;-72
2024/01/07 09:45:06;;;;;;;10.67;7.90;;;4.20;99.90;;;;;;5023262;28;20185;-74
2024/01/07 09:47:32;;;;;;;11.47;7.80;;;4.20;99.90;;;;;;5032620;28;20178;-74
2024/01/07 09:50:02;;;;;;;10.33;7.53;;;4.20;99.90;;;;;;5029197;28;20253;-71
2024/01/07 09:52:30;;;;;;;9.43;7.63;;;4.20;99.90;;;;;;5024557;28;20238;-71
2024/01/07 09:55:02;;;;;;;10.93;8.50;;;4.20;99.90;;;;;;5035947;28;20202;-73
2024/01/07 09:57:28;;;;;;;11.90;8.10;;;4.20;99.90;;;;;;5037241;28;20202;-71
2024/01/07 09:59:56;;;;;;;11.70;7.57;;;4.20;99.90;;;;;;5031342;28;20208;-73
2024/01/07 10:02:22;;;;;;;10.23;7.33;;;4.30;99.90;;;;;;5032868;28;20199;-74
2024/01/07 10:04:49;;;;;;;10.63;7.53;;;4.30;99.90;;;;;;5034595;28;20246;-71
2024/01/07 10:07:15;;;;;;;10.23;7.33;;;4.30;99.90;;;;;;5022266;28;20290;-74
2024/01/07 10:09:44;;;;;;;10.13;7.43;;;4.40;99.90;;;;;;5035950;28;20253;-72
2024/01/07 10:12:12;;;;;;;10.83;7.30;;;4.40;99.90;;;;;;5035364;28;20206;-73
2024/01/07 10:14:42;;;;;;;10.30;7.73;;;4.50;99.90;;;;;;5034603;28;20235;-73
2024/01/07 10:17:17;;;;;;;12.80;8.03;;;4.50;99.90;;;;;;5034208;28;20259;-74
2024/01/07 10:19:46;;;;;;;11.20;8.10;;;4.50;99.90;;;;;;5024435;28;20193;-74
2024/01/07 10:22:15;;;;;;;11.57;8.33;;;4.50;99.90;;;;;;5034837;28;20251;-78
2024/01/07 10:24:48;;;;;;;9.70;7.23;;;4.40;99.90;;;;;;5034722;28;20194;-73
2024/01/07 10:27:13;;;;;;;14.93;10.17;;;4.40;99.90;;;;;;5049921;28;20264;-77
2024/01/07 10:29:42;;;;;;;11.73;9.10;;;4.40;99.90;;;;;;5031071;28;20241;-74
2024/01/07 10:32:10;;;;;;;11.60;7.93;;;4.40;99.90;;;;;;5035407;28;20186;-74
2024/01/07 10:34:36;;;;;;;11.93;8.97;;;4.50;99.90;;;;;;5030584;28;20247;-72
2024/01/07 10:37:04;;;;;;;10.70;7.87;;;4.50;99.90;;;;;;5017815;28;20208;-74
2024/01/07 10:39:33;;;;;;;13.10;8.70;;;4.40;99.90;;;;;;5031532;28;20214;-74
2024/01/07 10:42:00;;;;;;;14.17;9.20;;;4.40;99.90;;;;;;5023688;28;20210;-72
2024/01/07 10:44:26;;;;;;;14.03;9.50;;;4.50;99.90;;;;;;5024135;28;20252;-71
2024/01/07 10:46:55;;;;;;;12.13;8.70;;;4.40;99.90;;;;;;5033219;28;20192;-73
2024/01/07 10:49:25;;;;;;;11.70;8.53;;;4.40;99.90;;;;;;5031421;28;20205;-73
2024/01/07 10:52:04;;;;;;;11.40;7.93;;;4.40;99.90;;;;;;5024500;28;20174;-76
2024/01/07 10:54:34;;;;;;;10.43;7.73;;;4.40;99.90;;;;;;5028211;28;20183;-73
2024/01/07 10:57:24;;;;;;;11.23;7.63;;;4.40;99.90;;;;;;5031656;28;20198;-76
2024/01/07 10:59:53;;;;;;;9.20;7.03;;;4.40;99.90;;;;;;5033051;28;20209;-75
2024/01/07 11:02:20;;;;;;;10.50;7.23;;;4.40;99.90;;;;;;5031830;28;20232;-75
2024/01/07 11:04:56;;;;;;;9.57;6.90;;;4.30;99.90;;;;;;5032844;28;20543;-76
2024/01/07 11:07:53;;;;;;;8.43;6.60;;;4.30;99.90;;;;;;5026367;28;20192;-75
2024/01/07 11:10:38;;;;;;;8.03;6.57;;;4.30;99.90;;;;;;5030836;28;20297;-76
2024/01/07 11:13:04;;;;;;;7.93;5.90;;;4.20;99.90;;;;;;5036426;28;20183;-74
2024/01/07 11:15:48;;;;;;;7.97;6.27;;;4.30;99.90;;;;;;5033437;28;20178;-76
2024/01/07 11:18:21;;;;;;;7.50;6.27;;;4.20;99.90;;;;;;5026013;28;20197;-72
2024/01/07 11:20:49;;;;;;;8.30;6.53;;;4.20;99.90;;;;;;5033356;28;20182;-75
2024/01/07 11:23:33;;;;;;;8.90;6.40;;;4.30;99.90;;;;;;5023625;28;20281;-74
2024/01/07 11:26:04;;;;;;;7.83;6.13;;;4.20;99.90;;;;;;5026982;28;20242;-72
2024/01/07 11:28:57;;;;;;;7.53;6.03;;;4.20;99.90;;;;;;5035036;28;20166;-73
2024/01/07 11:31:41;;;;;;;6.30;5.30;;;4.20;99.90;;;;;;5033875;28;20177;-75
2024/01/07 11:34:08;;;;;;;6.47;5.30;;;4.20;99.90;;;;;;5033964;28;20175;-75
2024/01/07 11:36:37;;;;;;;7.10;5.60;;;4.20;99.90;;;;;;5034850;28;20267;-75
2024/01/07 11:39:06;;;;;;;7.17;5.83;;;4.20;99.90;;;;;;5033564;28;20201;-74
2024/01/07 11:41:33;;;;;;;7.17;5.90;;;4.30;99.90;;;;;;5025456;28;20239;-75
2024/01/07 11:44:00;;;;;;;7.17;5.90;;;4.30;99.90;;;;;;5033639;28;20205;-75
2024/01/07 11:46:30;;;;;;;8.00;6.40;;;4.40;99.90;;;;;;5028601;28;20178;-75
2024/01/07 11:48:59;;;;;;;8.67;6.57;;;4.40;99.90;;;;;;5031540;28;20178;-74
2024/01/07 11:51:35;;;;;;;7.63;6.43;;;4.50;99.90;;;;;;5030475;28;20197;-75
2024/01/07 11:54:01;;;;;;;9.17;7.57;;;4.60;99.90;;;;;;5032602;28;20173;-71
2024/01/07 11:56:27;;;;;;;10.10;7.73;;;4.60;99.90;;;;;;5032623;28;20233;-72
2024/01/07 11:58:53;;;;;;;8.60;7.50;;;4.60;99.90;;;;;;5048686;28;20178;-72
2024/01/07 12:01:19;;;;;;;8.10;6.80;;;4.60;99.90;;;;;;5033104;28;20292;-73
2024/01/07 12:03:45;;;;;;;8.67;6.90;;;4.60;99.90;;;;;;5031932;28;20198;-74
2024/01/07 12:06:13;;;;;;;8.60;7.17;;;4.60;99.90;;;;;;5031864;28;20181;-74
2024/01/07 12:08:45;;;;;;;8.43;7.03;;;4.60;99.90;;;;;;5028641;28;20286;-70
2024/01/07 12:11:12;;;;;;;8.57;7.17;;;4.60;99.90;;;;;;5031790;28;20206;-75
2024/01/07 12:13:38;;;;;;;9.13;7.60;;;4.60;99.90;;;;;;5024496;28;20174;-75
2024/01/07 12:16:13;;;;;;;10.90;9.00;;;4.60;99.90;;;;;;5033729;28;20193;-77
2024/01/07 12:18:42;;;;;;;9.37;7.23;;;4.60;99.90;;;;;;5032278;28;20244;-75
2024/01/07 12:21:08;;;;;;;10.77;7.73;;;4.60;99.90;;;;;;5030432;28;20182;-71
2024/01/07 12:23:37;;;;;;;9.50;7.60;;;4.70;99.90;;;;;;5028374;28;20205;-75
2024/01/07 12:26:09;;;;;;;9.10;7.20;;;4.60;99.90;;;;;;5033578;28;20226;-73
2024/01/07 12:28:34;;;;;;;10.43;7.73;;;4.60;99.90;;;;;;5032082;28;20208;-74
2024/01/07 12:31:01;;;;;;;9.03;7.63;;;4.60;99.90;;;;;;5048765;28;20365;-73
2024/01/07 12:33:30;;;;;;;9.23;7.60;;;4.60;99.90;;;;;;5039416;28;20209;-75
2024/01/07 12:35:57;;;;;;;9.67;7.90;;;4.60;99.90;;;;;;5047819;28;20272;-74
2024/01/07 12:38:24;;;;;;;9.53;7.57;;;4.60;99.90;;;;;;5038309;28;20184;-76
2024/01/07 12:40:51;;;;;;;9.80;7.83;;;4.60;99.90;;;;;;5018693;28;20183;-74
2024/01/07 12:43:19;;;;;;;10.63;7.53;;;4.60;99.90;;;;;;5020694;28;20203;-71
2024/01/07 12:45:47;;;;;;;9.97;7.00;;;4.70;99.90;;;;;;5037852;28;20314;-74
2024/01/07 12:48:13;;;;;;;9.63;7.70;;;4.60;99.90;;;;;;5032271;28;20178;-74
2024/01/07 12:50:38;;;;;;;10.30;7.63;;;4.50;99.90;;;;;;5036796;28;20178;-73
2024/01/07 12:53:05;;;;;;;8.67;7.00;;;4.70;99.90;;;;;;5035925;28;20189;-75